createdAt,value
2019-03-02T00:00:20.273Z,1.00
2019-03-02T00:02:48.769Z,1.00
2019-03-02T00:05:17.327Z,1.00
2019-03-02T00:07:47.710Z,0.90
2019-03-02T00:10:15.922Z,0.90
2019-03-02T00:12:44.388Z,0.90
2019-03-02T00:15:12.896Z,1.00
2019-03-02T00:17:41.354Z,1.00
2019-03-02T00:20:09.967Z,1.00
2019-03-02T00:22:39.550Z,0.90
2019-03-02T00:25:09.625Z,0.90
2019-03-02T00:27:38.142Z,1.00
2019-03-02T00:30:12.146Z,1.00
2019-03-02T00:32:41.552Z,0.90
2019-03-02T00:35:10.790Z,0.90
2019-03-02T00:37:39.245Z,0.90
2019-03-02T00:40:09.850Z,0.90
2019-03-02T00:42:38.305Z,0.90
2019-03-02T00:45:10.591Z,0.90
2019-03-02T00:47:39.635Z,0.90
2019-03-02T00:50:08.330Z,0.90
2019-03-02T00:52:36.848Z,0.90
2019-03-02T00:55:06.841Z,0.90
2019-03-02T00:57:35.278Z,0.90
2019-03-02T01:00:05.098Z,0.90
2019-03-02T01:02:36.705Z,0.80
2019-03-02T01:05:04.449Z,0.80
2019-03-02T01:07:32.886Z,0.80
2019-03-02T01:10:01.353Z,0.80
2019-03-02T01:12:29.803Z,0.70
2019-03-02T01:14:58.267Z,0.70
2019-03-02T01:17:26.880Z,0.70
2019-03-02T01:19:56.914Z,0.70
2019-03-02T01:22:25.333Z,0.70
2019-03-02T01:24:53.782Z,0.70
2019-03-02T01:27:22.243Z,0.70
2019-03-02T01:29:51.610Z,0.70
2019-03-02T01:32:20.889Z,0.80
2019-03-02T01:34:49.335Z,0.70
2019-03-02T01:37:17.778Z,0.70
2019-03-02T01:39:46.218Z,0.80
2019-03-02T01:42:14.671Z,0.80
2019-03-02T01:44:43.190Z,0.80
2019-03-02T01:47:12.488Z,0.80
2019-03-02T01:49:41.817Z,0.80
2019-03-02T01:52:10.254Z,0.80
2019-03-02T01:54:38.754Z,0.80
2019-03-02T01:57:07.442Z,0.80
2019-03-02T01:59:38.787Z,0.80
2019-03-02T02:02:06.134Z,0.90
2019-03-02T02:04:34.592Z,0.90
2019-03-02T02:07:03.041Z,0.80
2019-03-02T02:09:31.494Z,0.90
2019-03-02T02:11:59.934Z,0.80
2019-03-02T02:14:28.438Z,0.80
2019-03-02T02:16:56.990Z,0.80
2019-03-02T02:19:25.420Z,0.80
2019-03-02T02:21:53.870Z,0.90
2019-03-02T02:24:24.861Z,0.90
2019-03-02T02:26:52.850Z,0.90
2019-03-02T02:29:21.286Z,0.90
2019-03-02T02:31:49.807Z,0.90
2019-03-02T02:34:22.158Z,0.90
2019-03-02T02:36:52.883Z,1.00
2019-03-02T02:39:18.666Z,1.00
2019-03-02T02:41:47.122Z,1.00
2019-03-02T02:44:15.572Z,1.00
2019-03-02T02:46:44.023Z,1.00
2019-03-02T02:49:12.487Z,1.00
2019-03-02T02:51:44.520Z,1.00
2019-03-02T02:54:11.183Z,1.10
2019-03-02T02:56:39.703Z,1.00
2019-03-02T02:59:08.143Z,1.00
2019-03-02T03:01:36.609Z,1.00
2019-03-02T03:04:05.056Z,1.00
2019-03-02T03:06:34.256Z,1.00
2019-03-02T03:09:05.115Z,1.10
2019-03-02T03:11:34.590Z,1.10
2019-03-02T03:14:03.138Z,1.10
2019-03-02T03:16:31.626Z,1.10
2019-03-02T03:19:00.063Z,1.10
2019-03-02T03:21:29.579Z,1.10
2019-03-02T03:24:03.266Z,1.10
2019-03-02T03:26:31.063Z,1.20
2019-03-02T03:28:58.490Z,1.10
2019-03-02T03:31:30.966Z,1.10
2019-03-02T03:33:57.122Z,1.10
2019-03-02T03:36:30.179Z,1.10
2019-03-02T03:38:55.753Z,1.10
2019-03-02T03:41:24.279Z,1.10
2019-03-02T03:43:52.786Z,1.10
2019-03-02T03:46:22.420Z,1.10
2019-03-02T03:48:56.228Z,1.10
2019-03-02T03:51:26.295Z,1.10
2019-03-02T03:53:51.873Z,1.00
2019-03-02T03:56:20.349Z,1.10
2019-03-02T03:58:48.879Z,1.10
2019-03-02T04:01:19.010Z,1.00
2019-03-02T04:03:51.690Z,1.00
2019-03-02T04:06:17.906Z,1.00
2019-03-02T04:08:46.560Z,1.10
2019-03-02T04:11:15.101Z,1.10
2019-03-02T04:13:44.995Z,1.00
2019-03-02T04:16:16.168Z,1.10
2019-03-02T04:18:55.306Z,1.10
2019-03-02T04:21:23.390Z,1.10
2019-03-02T04:23:56.139Z,1.20
2019-03-02T04:26:23.229Z,1.20
2019-03-02T04:28:51.682Z,1.20
2019-03-02T04:31:20.150Z,1.20
2019-03-02T04:33:48.574Z,1.20
2019-03-02T04:36:17.075Z,1.20
2019-03-02T04:38:45.592Z,1.20
2019-03-02T04:41:14.022Z,1.20
2019-03-02T04:43:42.489Z,1.20
2019-03-02T04:46:11.758Z,1.20
2019-03-02T04:48:41.120Z,1.20
2019-03-02T04:51:09.616Z,1.10
2019-03-02T04:53:38.078Z,1.20
2019-03-02T04:56:06.534Z,1.10
2019-03-02T04:58:35.090Z,1.10
2019-03-02T05:01:03.841Z,1.10
2019-03-02T05:03:33.678Z,1.10
2019-03-02T05:06:02.115Z,1.10
2019-03-02T05:08:30.577Z,1.10
2019-03-02T05:11:00.672Z,1.10
2019-03-02T05:13:29.551Z,1.20
2019-03-02T05:15:58.071Z,1.10
2019-03-02T05:18:26.526Z,1.10
2019-03-02T05:20:54.983Z,1.10
2019-03-02T05:23:23.520Z,1.20
2019-03-02T05:25:54.593Z,1.10
2019-03-02T05:28:25.222Z,1.20
2019-03-02T05:30:53.661Z,1.20
2019-03-02T05:33:24.218Z,1.10
2019-03-02T05:35:52.795Z,1.10
2019-03-02T05:38:21.233Z,1.10
2019-03-02T05:40:49.802Z,1.20
2019-03-02T05:43:18.326Z,1.20
2019-03-02T05:45:46.787Z,1.10
2019-03-02T05:48:15.223Z,1.10
2019-03-02T05:50:43.710Z,1.10
2019-03-02T05:53:12.153Z,1.10
2019-03-02T05:55:40.658Z,1.20
2019-03-02T05:58:09.088Z,1.20
2019-03-02T06:00:38.749Z,1.20
2019-03-02T06:03:07.375Z,1.10
2019-03-02T06:05:35.821Z,1.10
2019-03-02T06:08:04.284Z,1.20
2019-03-02T06:10:32.771Z,1.20
2019-03-02T06:13:01.210Z,1.20
2019-03-02T06:15:29.691Z,1.20
2019-03-02T06:17:58.122Z,1.20
2019-03-02T06:20:26.590Z,1.20
2019-03-02T06:22:55.494Z,1.20
2019-03-02T06:25:25.086Z,1.20
2019-03-02T06:27:53.522Z,1.20
2019-03-02T06:30:24.174Z,1.30
2019-03-02T06:32:52.705Z,1.30
2019-03-02T06:35:21.200Z,1.30
2019-03-02T06:37:53.016Z,1.30
2019-03-02T06:40:23.517Z,1.30
2019-03-02T06:42:49.998Z,1.30
2019-03-02T06:45:19.765Z,1.40
2019-03-02T06:47:48.211Z,1.40
2019-03-02T06:50:19.855Z,1.40
2019-03-02T06:52:48.336Z,1.40
2019-03-02T06:55:17.421Z,1.40
2019-03-02T06:57:50.269Z,1.40
2019-03-02T07:00:18.991Z,1.50
2019-03-02T07:02:47.455Z,1.50
2019-03-02T07:05:15.890Z,1.50
2019-03-02T07:07:44.369Z,1.60
2019-03-02T07:10:21.761Z,1.50
2019-03-02T07:12:51.138Z,1.50
2019-03-02T07:15:19.612Z,1.50
2019-03-02T07:18:01.867Z,1.50
2019-03-02T07:20:30.553Z,1.60
2019-03-02T07:22:59.018Z,1.60
2019-03-02T07:25:27.464Z,1.60
2019-03-02T07:27:55.945Z,1.70
2019-03-02T07:30:24.439Z,1.70
2019-03-02T07:32:54.789Z,1.80
2019-03-02T07:35:23.104Z,1.80
2019-03-02T07:37:51.635Z,1.80
2019-03-02T07:40:20.217Z,1.80
2019-03-02T07:42:48.698Z,1.80
2019-03-02T07:45:18.598Z,1.80
2019-03-02T07:47:47.133Z,1.70
2019-03-02T07:50:16.205Z,1.80
2019-03-02T07:52:45.634Z,1.90
2019-03-02T07:55:18.517Z,1.90
2019-03-02T07:57:44.920Z,2.00
2019-03-02T08:00:18.955Z,2.00
2019-03-02T08:02:47.465Z,2.00
2019-03-02T08:05:16.029Z,1.90
2019-03-02T08:07:44.628Z,2.00
2019-03-02T08:10:14.089Z,2.10
2019-03-02T08:12:42.581Z,2.10
2019-03-02T08:15:24.171Z,2.10
2019-03-02T08:17:53.021Z,2.10
2019-03-02T08:20:24.576Z,2.10
2019-03-02T08:22:51.731Z,2.10
2019-03-02T08:25:20.223Z,2.20
2019-03-02T08:27:48.699Z,2.20
2019-03-02T08:30:24.417Z,2.20
2019-03-02T08:32:53.928Z,2.20
2019-03-02T08:35:23.058Z,2.20
2019-03-02T08:37:51.508Z,2.30
2019-03-02T08:40:23.439Z,2.20
2019-03-02T08:42:50.138Z,2.20
2019-03-02T08:45:19.538Z,2.30
2019-03-02T08:47:48.071Z,2.30
2019-03-02T08:50:18.668Z,2.40
2019-03-02T08:52:47.514Z,2.50
2019-03-02T08:55:24.834Z,2.40
2019-03-02T08:57:54.043Z,2.50
2019-03-02T09:00:24.553Z,2.50
2019-03-02T09:02:54.973Z,2.50
2019-03-02T09:05:42.951Z,2.60
2019-03-02T09:07:53.530Z,2.60
2019-03-02T09:10:22.000Z,2.60
2019-03-02T09:12:50.569Z,2.50
2019-03-02T09:15:29.948Z,2.50
2019-03-02T09:17:58.136Z,2.60
2019-03-02T09:20:26.759Z,2.70
2019-03-02T09:22:56.519Z,2.80
2019-03-02T09:25:28.057Z,2.80
2019-03-02T09:27:55.631Z,2.90
2019-03-02T09:30:24.153Z,3.00
2019-03-02T09:32:54.370Z,3.30
2019-03-02T09:35:22.898Z,3.40
2019-03-02T09:37:51.378Z,3.50
2019-03-02T09:40:21.225Z,3.60
2019-03-02T09:42:49.667Z,3.60
2019-03-02T09:45:18.963Z,3.60
2019-03-02T09:47:51.564Z,3.70
2019-03-02T09:50:21.731Z,3.80
2019-03-02T09:52:50.384Z,3.90
2019-03-02T09:55:20.352Z,4.00
2019-03-02T09:57:49.319Z,4.10
2019-03-02T10:00:26.187Z,4.20
2019-03-02T10:02:54.683Z,4.30
2019-03-02T10:05:23.226Z,4.30
2019-03-02T10:07:51.736Z,4.30
2019-03-02T10:10:20.364Z,4.30
2019-03-02T10:12:51.688Z,4.40
2019-03-02T10:15:30.648Z,4.40
2019-03-02T10:17:59.133Z,4.40
2019-03-02T10:20:27.837Z,4.40
2019-03-02T10:22:56.298Z,4.50
2019-03-02T10:25:25.947Z,4.60
2019-03-02T10:27:57.573Z,4.70
2019-03-02T10:30:27.414Z,4.70
2019-03-02T10:32:57.302Z,4.70
2019-03-02T10:35:25.927Z,4.60
2019-03-02T10:37:54.434Z,4.70
2019-03-02T10:40:23.308Z,4.70
2019-03-02T10:42:52.025Z,4.80
2019-03-02T10:45:21.671Z,4.90
2019-03-02T10:47:50.270Z,4.90
2019-03-02T10:50:23.464Z,4.90
2019-03-02T10:52:51.173Z,4.90
2019-03-02T10:55:22.023Z,4.80
2019-03-02T10:57:50.742Z,4.80
2019-03-02T11:00:31.243Z,4.70
2019-03-02T11:03:08.500Z,4.60
2019-03-02T11:05:56.901Z,4.50
2019-03-02T11:08:29.219Z,4.60
2019-03-02T11:11:11.081Z,4.60
2019-03-02T11:13:45.716Z,4.60
2019-03-02T11:16:31.990Z,4.60
2019-03-02T11:19:11.304Z,4.50
2019-03-02T11:21:55.863Z,4.50
2019-03-02T11:24:26.854Z,4.60
2019-03-02T11:27:02.509Z,4.60
2019-03-02T11:29:50.554Z,4.50
2019-03-02T11:32:20.347Z,4.50
2019-03-02T11:35:10.320Z,4.40
2019-03-02T11:37:41.748Z,4.40
2019-03-02T11:40:11.921Z,4.50
2019-03-02T11:42:42.795Z,4.60
2019-03-02T11:45:12.956Z,4.60
2019-03-02T11:47:52.136Z,4.60
2019-03-02T11:50:24.894Z,4.70
2019-03-02T11:53:00.981Z,4.70
2019-03-02T11:55:47.330Z,4.80
2019-03-02T11:58:34.307Z,4.90
2019-03-02T12:01:18.109Z,4.90
2019-03-02T12:03:51.020Z,4.90
2019-03-02T12:06:29.881Z,5.00
2019-03-02T12:09:08.966Z,5.10
2019-03-02T12:11:46.846Z,5.00
2019-03-02T12:14:28.434Z,4.90
2019-03-02T12:17:00.223Z,4.90
2019-03-02T12:19:46.637Z,5.00
2019-03-02T12:22:22.681Z,5.30
2019-03-02T12:24:58.461Z,5.50
2019-03-02T12:27:41.910Z,5.80
2019-03-02T12:30:14.194Z,6.00
2019-03-02T12:32:56.902Z,6.20
2019-03-02T12:35:27.031Z,6.60
2019-03-02T12:38:15.052Z,7.00
2019-03-02T12:40:45.194Z,7.20
2019-03-02T12:43:31.450Z,7.60
2019-03-02T12:46:05.244Z,7.70
2019-03-02T12:48:43.313Z,7.60
2019-03-02T12:51:13.819Z,7.40
2019-03-02T12:53:46.791Z,7.20
2019-03-02T12:56:17.031Z,6.90
2019-03-02T12:58:47.190Z,6.90
2019-03-02T13:01:23.382Z,6.90
2019-03-02T13:03:53.468Z,7.10
2019-03-02T13:06:32.215Z,7.10
2019-03-02T13:09:10.022Z,7.10
2019-03-02T13:11:40.926Z,7.10
2019-03-02T13:14:19.835Z,7.10
2019-03-02T13:16:59.288Z,7.10
2019-03-02T13:19:41.654Z,6.90
2019-03-02T13:22:20.118Z,6.80
2019-03-02T13:24:57.796Z,6.80
2019-03-02T13:27:27.633Z,6.60
2019-03-02T13:30:13.917Z,6.40
2019-03-02T13:33:00.377Z,6.50
2019-03-02T13:35:33.396Z,6.60
2019-03-02T13:38:03.472Z,6.60
2019-03-02T13:40:42.712Z,6.50
2019-03-02T13:43:12.959Z,6.60
2019-03-02T13:45:55.435Z,6.80
2019-03-02T13:48:25.655Z,6.90
2019-03-02T13:50:55.890Z,7.00
2019-03-02T13:53:34.933Z,7.10
2019-03-02T13:56:22.173Z,7.20
2019-03-02T13:58:54.960Z,7.10
2019-03-02T14:01:30.371Z,7.00
2019-03-02T14:04:00.466Z,7.00
2019-03-02T14:06:39.901Z,6.80
2019-03-02T14:09:16.189Z,6.90
2019-03-02T14:11:59.492Z,7.00
2019-03-02T14:14:29.605Z,6.90
2019-03-02T14:17:11.840Z,6.90
2019-03-02T14:19:48.403Z,6.70
2019-03-02T14:22:21.530Z,6.60
2019-03-02T14:25:00.275Z,6.50
2019-03-02T14:27:39.447Z,6.90
2019-03-02T14:30:14.149Z,7.40
2019-03-02T14:33:00.254Z,7.40
2019-03-02T14:35:30.336Z,7.50
2019-03-02T14:38:00.480Z,7.90
2019-03-02T14:40:30.613Z,8.00
2019-03-02T14:43:03.390Z,8.00
2019-03-02T14:45:43.195Z,7.90
2019-03-02T14:48:17.051Z,7.70
2019-03-02T14:50:47.149Z,7.40
2019-03-02T14:53:23.282Z,7.30
2019-03-02T14:55:59.173Z,7.10
2019-03-02T14:58:29.287Z,7.20
2019-03-02T15:01:02.767Z,7.30
2019-03-02T15:03:40.298Z,7.30
2019-03-02T15:06:13.146Z,6.90
2019-03-02T15:08:55.173Z,6.90
2019-03-02T15:11:40.097Z,7.10
2019-03-02T15:14:14.392Z,7.10
2019-03-02T15:16:44.601Z,7.00
2019-03-02T15:19:14.694Z,7.10
2019-03-02T15:21:50.523Z,7.10
2019-03-02T15:24:23.044Z,6.80
2019-03-02T15:26:55.651Z,6.50
2019-03-02T15:29:34.940Z,6.30
2019-03-02T15:32:22.818Z,6.30
2019-03-02T15:34:58.000Z,6.30
2019-03-02T15:37:36.398Z,6.30
2019-03-02T15:40:15.398Z,6.50
2019-03-02T15:42:45.571Z,6.50
2019-03-02T15:45:18.831Z,6.60
2019-03-02T15:47:50.756Z,6.70
2019-03-02T15:50:23.647Z,6.80
2019-03-02T15:52:59.781Z,6.80
2019-03-02T15:55:41.280Z,6.90
2019-03-02T15:58:11.558Z,6.70
2019-03-02T16:00:51.917Z,6.60
2019-03-02T16:03:33.058Z,6.60
2019-03-02T16:06:19.576Z,6.50
2019-03-02T16:09:05.792Z,6.50
2019-03-02T16:11:36.782Z,6.50
2019-03-02T16:14:15.959Z,6.50
2019-03-02T16:17:03.640Z,6.50
2019-03-02T16:19:36.001Z,6.50
2019-03-02T16:22:06.175Z,6.40
2019-03-02T16:24:51.606Z,6.20
2019-03-02T16:27:39.684Z,6.20
2019-03-02T16:30:18.451Z,6.00
2019-03-02T16:32:51.926Z,6.00
2019-03-02T16:35:29.269Z,5.90
2019-03-02T16:38:02.134Z,5.90
2019-03-02T16:40:32.345Z,5.80
2019-03-02T16:43:02.520Z,5.80
2019-03-02T16:45:35.696Z,5.70
2019-03-02T16:48:11.784Z,5.70
2019-03-02T16:50:41.906Z,5.70
2019-03-02T16:53:22.576Z,5.60
2019-03-02T16:55:52.859Z,5.60
2019-03-02T16:58:22.970Z,5.50
2019-03-02T17:01:02.181Z,5.50
2019-03-02T17:03:38.981Z,5.50
2019-03-02T17:06:11.207Z,5.50
2019-03-02T17:08:57.788Z,5.50
2019-03-02T17:11:28.022Z,5.50
2019-03-02T17:14:15.190Z,5.50
2019-03-02T17:16:51.317Z,5.50
2019-03-02T17:19:33.387Z,5.50
2019-03-02T17:22:03.615Z,5.50
2019-03-02T17:24:33.761Z,5.50
2019-03-02T17:27:09.894Z,5.50
2019-03-02T17:29:44.948Z,5.50
2019-03-02T17:32:30.633Z,5.50
2019-03-02T17:35:07.761Z,5.50
2019-03-02T17:37:54.058Z,5.50
2019-03-02T17:40:42.309Z,5.50
2019-03-02T17:43:24.571Z,5.50
2019-03-02T17:45:54.735Z,5.60
2019-03-02T17:48:36.665Z,5.60
2019-03-02T17:51:21.260Z,5.60
2019-03-02T17:54:03.607Z,5.70
2019-03-02T17:56:32.031Z,5.70
2019-03-02T17:59:09.046Z,5.70
2019-03-02T18:01:45.415Z,5.70
2019-03-02T18:04:35.510Z,5.70
2019-03-02T18:07:05.505Z,5.80
2019-03-02T18:09:44.334Z,5.80
2019-03-02T18:12:23.464Z,5.80
2019-03-02T18:15:08.025Z,5.80
2019-03-02T18:17:51.978Z,5.80
2019-03-02T18:20:20.977Z,5.80
2019-03-02T18:22:49.639Z,5.80
2019-03-02T18:25:18.081Z,5.70
2019-03-02T18:27:46.521Z,5.80
2019-03-02T18:30:19.253Z,5.80
2019-03-02T18:32:49.567Z,5.90
2019-03-02T18:35:18.014Z,5.90
2019-03-02T18:37:46.599Z,5.80
2019-03-02T18:40:15.868Z,5.90
2019-03-02T18:42:44.349Z,5.80
2019-03-02T18:45:14.208Z,5.80
2019-03-02T18:47:42.801Z,5.70
2019-03-02T18:50:18.401Z,5.60
2019-03-02T18:52:48.509Z,5.70
2019-03-02T18:55:17.016Z,5.70
2019-03-02T18:57:46.510Z,5.70
2019-03-02T19:00:22.200Z,5.70
2019-03-02T19:02:50.491Z,5.70
2019-03-02T19:05:20.577Z,5.70
2019-03-02T19:07:49.094Z,5.80
2019-03-02T19:10:17.555Z,5.70
2019-03-02T19:12:46.073Z,5.70
2019-03-02T19:15:15.265Z,5.80
2019-03-02T19:17:42.641Z,5.80
2019-03-02T19:20:11.177Z,5.80
2019-03-02T19:22:39.673Z,5.80
2019-03-02T19:25:09.314Z,5.80
2019-03-02T19:27:37.862Z,5.80
2019-03-02T19:30:09.536Z,5.80
2019-03-02T19:32:37.989Z,5.90
2019-03-02T19:35:09.839Z,5.80
2019-03-02T19:37:38.378Z,5.90
2019-03-02T19:40:18.470Z,5.90
2019-03-02T19:42:46.945Z,5.80
2019-03-02T19:45:15.382Z,5.90
2019-03-02T19:47:43.828Z,5.80
2019-03-02T19:50:17.077Z,5.90
2019-03-02T19:52:45.717Z,5.90
2019-03-02T19:55:15.689Z,5.90
2019-03-02T19:57:44.778Z,5.90
2019-03-02T20:00:30.323Z,5.90
2019-03-02T20:02:58.830Z,5.90
2019-03-02T20:05:27.335Z,5.90
2019-03-02T20:07:56.868Z,5.90
2019-03-02T20:10:25.614Z,5.90
2019-03-02T20:12:54.054Z,5.90
2019-03-02T20:15:27.951Z,5.80
2019-03-02T20:17:56.513Z,5.80
2019-03-02T20:20:25.060Z,5.80
2019-03-02T20:22:53.687Z,5.80
2019-03-02T20:25:22.266Z,5.80
2019-03-02T20:27:50.796Z,5.80
2019-03-02T20:30:23.649Z,5.80
2019-03-02T20:32:52.107Z,5.80
2019-03-02T20:35:22.861Z,5.80
2019-03-02T20:37:51.314Z,5.80
2019-03-02T20:40:21.597Z,5.80
2019-03-02T20:42:50.232Z,5.80
2019-03-02T20:45:19.908Z,5.90
2019-03-02T20:47:48.433Z,5.90
2019-03-02T20:50:18.347Z,5.90
2019-03-02T20:52:47.044Z,5.90
2019-03-02T20:55:17.288Z,5.90
2019-03-02T20:57:46.483Z,5.90
2019-03-02T21:00:31.010Z,5.90
2019-03-02T21:02:59.407Z,5.90
2019-03-02T21:05:28.685Z,5.90
2019-03-02T21:07:57.228Z,5.90
2019-03-02T21:10:28.884Z,5.90
2019-03-02T21:13:01.066Z,5.90
2019-03-02T21:15:33.918Z,5.90
2019-03-02T21:18:02.595Z,5.90
2019-03-02T21:20:31.599Z,5.90
2019-03-02T21:23:00.134Z,5.90
2019-03-02T21:25:28.585Z,5.90
2019-03-02T21:27:57.097Z,5.90
2019-03-02T21:30:25.538Z,5.90
2019-03-02T21:32:53.987Z,5.90
2019-03-02T21:35:24.314Z,5.90
2019-03-02T21:37:52.799Z,6.00
2019-03-02T21:40:26.602Z,6.00
2019-03-02T21:42:55.206Z,6.00
2019-03-02T21:45:28.048Z,6.00
2019-03-02T21:47:56.597Z,5.90
2019-03-02T21:50:53.605Z,6.00
2019-03-02T21:53:22.146Z,6.00
2019-03-02T21:55:50.629Z,6.00
2019-03-02T21:58:19.073Z,6.00
2019-03-02T22:00:47.529Z,6.00
2019-03-02T22:03:15.982Z,6.00
2019-03-02T22:05:44.478Z,6.00
2019-03-02T22:08:12.919Z,6.00
2019-03-02T22:10:47.466Z,6.00
2019-03-02T22:13:16.012Z,6.00
2019-03-02T22:15:44.545Z,5.90
2019-03-02T22:18:13.055Z,5.90
2019-03-02T22:20:41.488Z,5.90
2019-03-02T22:23:10.874Z,5.90
2019-03-02T22:25:39.315Z,5.90
2019-03-02T22:28:07.789Z,5.90
2019-03-02T22:30:36.244Z,5.90
2019-03-02T22:33:04.745Z,5.90
2019-03-02T22:35:33.259Z,5.90
2019-03-02T22:38:01.721Z,5.90
2019-03-02T22:40:30.183Z,5.90
2019-03-02T22:42:58.693Z,6.00
2019-03-02T22:45:27.194Z,6.00
2019-03-02T22:47:55.661Z,6.00
2019-03-02T22:50:28.661Z,6.00
2019-03-02T22:52:57.188Z,6.00
2019-03-02T22:55:25.638Z,6.00
2019-03-02T22:57:54.218Z,6.00
2019-03-02T23:00:31.354Z,6.10
2019-03-02T23:02:58.741Z,6.10
2019-03-02T23:05:27.195Z,6.20
2019-03-02T23:07:55.727Z,6.10
2019-03-02T23:10:24.200Z,6.10
2019-03-02T23:12:52.721Z,6.10
2019-03-02T23:15:27.209Z,6.10
2019-03-02T23:17:55.856Z,6.10
2019-03-02T23:20:24.357Z,6.10
2019-03-02T23:22:52.812Z,6.10
2019-03-02T23:25:21.311Z,6.10
2019-03-02T23:27:49.790Z,6.10
2019-03-02T23:30:23.428Z,6.10
2019-03-02T23:32:51.941Z,6.10
2019-03-02T23:35:20.554Z,6.20
2019-03-02T23:37:49.016Z,6.30
2019-03-02T23:40:18.599Z,6.20
2019-03-02T23:42:47.215Z,6.30
2019-03-02T23:45:16.605Z,6.20
2019-03-02T23:47:45.114Z,6.20
2019-03-02T23:50:14.112Z,6.20
2019-03-02T23:52:42.710Z,6.20
2019-03-02T23:55:12.294Z,6.20
2019-03-02T23:57:40.870Z,6.20
